sensor_id;sensor_type;location;lat;lon;timestamp;temperature;humidity
44775;DHT22;31340;51.402;0.016;2023-07-20T00:02:14;20.60;86.00
44775;DHT22;31340;51.402;0.016;2023-07-20T00:04:42;20.60;86.20
44775;DHT22;31340;51.402;0.016;2023-07-20T00:07:10;20.50;86.40
44775;DHT22;31340;51.402;0.016;2023-07-20T00:09:38;20.50;86.60
44775;DHT22;31340;51.402;0.016;2023-07-20T00:12:06;20.50;86.90
44775;DHT22;31340;51.402;0.016;2023-07-20T00:14:34;20.40;87.00
44775;DHT22;31340;51.402;0.016;2023-07-20T00:17:02;20.40;87.30
44775;DHT22;31340;51.402;0.016;2023-07-20T00:19:31;20.30;87.50
44775;DHT22;31340;51.402;0.016;2023-07-20T00:22:00;20.30;87.80
44775;DHT22;31340;51.402;0.016;2023-07-20T00:24:27;20.20;87.90
44775;DHT22;31340;51.402;0.016;2023-07-20T00:26:55;20.20;88.30
44775;DHT22;31340;51.402;0.016;2023-07-20T00:29:23;20.20;88.70
44775;DHT22;31340;51.402;0.016;2023-07-20T00:31:51;20.10;88.90
44775;DHT22;31340;51.402;0.016;2023-07-20T00:34:19;20.10;89.50
44775;DHT22;31340;51.402;0.016;2023-07-20T00:36:46;20.10;89.70
44775;DHT22;31340;51.402;0.016;2023-07-20T00:39:16;20.00;90.10
44775;DHT22;31340;51.402;0.016;2023-07-20T00:41:45;20.00;90.30
44775;DHT22;31340;51.402;0.016;2023-07-20T00:44:12;19.90;90.40
44775;DHT22;31340;51.402;0.016;2023-07-20T00:46:40;19.90;90.60
44775;DHT22;31340;51.402;0.016;2023-07-20T00:49:09;19.80;90.70
44775;DHT22;31340;51.402;0.016;2023-07-20T00:51:38;19.80;90.90
44775;DHT22;31340;51.402;0.016;2023-07-20T00:54:05;19.80;91.00
44775;DHT22;31340;51.402;0.016;2023-07-20T00:56:36;19.80;91.10
44775;DHT22;31340;51.402;0.016;2023-07-20T00:59:05;19.70;91.10
44775;DHT22;31340;51.402;0.016;2023-07-20T01:01:35;19.70;91.30
44775;DHT22;31340;51.402;0.016;2023-07-20T01:04:03;19.70;91.40
44775;DHT22;31340;51.402;0.016;2023-07-20T01:06:36;19.70;91.50
44775;DHT22;31340;51.402;0.016;2023-07-20T01:09:10;19.60;91.50
44775;DHT22;31340;51.402;0.016;2023-07-20T01:11:49;19.60;91.60
44775;DHT22;31340;51.402;0.016;2023-07-20T01:14:20;19.60;91.60
44775;DHT22;31340;51.402;0.016;2023-07-20T01:16:48;19.60;91.70
44775;DHT22;31340;51.402;0.016;2023-07-20T01:19:17;19.50;91.80
44775;DHT22;31340;51.402;0.016;2023-07-20T01:33:15;19.30;92.10
44775;DHT22;31340;51.402;0.016;2023-07-20T01:35:52;19.20;92.30
44775;DHT22;31340;51.402;0.016;2023-07-20T01:38:21;19.20;92.50
44775;DHT22;31340;51.402;0.016;2023-07-20T01:40:50;19.10;92.60
44775;DHT22;31340;51.402;0.016;2023-07-20T01:43:19;19.10;92.80
44775;DHT22;31340;51.402;0.016;2023-07-20T01:45:46;19.10;93.00
44775;DHT22;31340;51.402;0.016;2023-07-20T01:48:14;19.00;93.00
44775;DHT22;31340;51.402;0.016;2023-07-20T01:50:42;19.00;93.10
44775;DHT22;31340;51.402;0.016;2023-07-20T01:53:10;18.90;93.30
44775;DHT22;31340;51.402;0.016;2023-07-20T01:55:38;18.90;93.30
44775;DHT22;31340;51.402;0.016;2023-07-20T01:58:06;18.80;93.40
44775;DHT22;31340;51.402;0.016;2023-07-20T02:00:37;18.80;93.50
44775;DHT22;31340;51.402;0.016;2023-07-20T02:03:04;18.80;93.70
44775;DHT22;31340;51.402;0.016;2023-07-20T02:05:32;18.70;93.70
44775;DHT22;31340;51.402;0.016;2023-07-20T02:08:00;18.70;93.80
44775;DHT22;31340;51.402;0.016;2023-07-20T02:10:28;18.70;93.80
44775;DHT22;31340;51.402;0.016;2023-07-20T02:12:55;18.60;93.90
44775;DHT22;31340;51.402;0.016;2023-07-20T02:15:23;18.60;94.00
44775;DHT22;31340;51.402;0.016;2023-07-20T02:17:51;18.50;94.10
44775;DHT22;31340;51.402;0.016;2023-07-20T02:20:19;18.50;94.10
44775;DHT22;31340;51.402;0.016;2023-07-20T02:22:47;18.50;94.20
44775;DHT22;31340;51.402;0.016;2023-07-20T02:25:15;18.50;94.20
44775;DHT22;31340;51.402;0.016;2023-07-20T02:27:44;18.50;94.40
44775;DHT22;31340;51.402;0.016;2023-07-20T02:30:11;18.40;94.40
44775;DHT22;31340;51.402;0.016;2023-07-20T02:32:39;18.40;94.50
44775;DHT22;31340;51.402;0.016;2023-07-20T02:35:07;18.40;94.50
44775;DHT22;31340;51.402;0.016;2023-07-20T02:37:35;18.40;94.60
44775;DHT22;31340;51.402;0.016;2023-07-20T02:40:05;18.40;94.60
44775;DHT22;31340;51.402;0.016;2023-07-20T02:42:34;18.30;94.70
44775;DHT22;31340;51.402;0.016;2023-07-20T02:45:03;18.30;94.70
44775;DHT22;31340;51.402;0.016;2023-07-20T02:47:32;18.30;94.90
44775;DHT22;31340;51.402;0.016;2023-07-20T02:50:01;18.30;94.90
44775;DHT22;31340;51.402;0.016;2023-07-20T02:52:29;18.20;95.00
44775;DHT22;31340;51.402;0.016;2023-07-20T02:54:57;18.20;95.10
44775;DHT22;31340;51.402;0.016;2023-07-20T02:57:25;18.20;95.20
44775;DHT22;31340;51.402;0.016;2023-07-20T02:59:52;18.10;95.20
44775;DHT22;31340;51.402;0.016;2023-07-20T03:02:21;18.10;95.30
44775;DHT22;31340;51.402;0.016;2023-07-20T03:04:49;18.10;95.40
44775;DHT22;31340;51.402;0.016;2023-07-20T03:07:16;18.00;95.50
44775;DHT22;31340;51.402;0.016;2023-07-20T03:09:47;18.00;95.50
44775;DHT22;31340;51.402;0.016;2023-07-20T03:12:15;18.00;95.20
44775;DHT22;31340;51.402;0.016;2023-07-20T03:14:43;18.00;95.50
44775;DHT22;31340;51.402;0.016;2023-07-20T03:17:11;18.00;95.60
44775;DHT22;31340;51.402;0.016;2023-07-20T03:19:39;18.00;95.60
44775;DHT22;31340;51.402;0.016;2023-07-20T03:22:08;18.00;95.70
44775;DHT22;31340;51.402;0.016;2023-07-20T03:24:36;18.00;95.70
44775;DHT22;31340;51.402;0.016;2023-07-20T03:27:03;18.00;95.70
44775;DHT22;31340;51.402;0.016;2023-07-20T03:29:32;18.00;95.70
44775;DHT22;31340;51.402;0.016;2023-07-20T03:32:00;18.00;95.80
44775;DHT22;31340;51.402;0.016;2023-07-20T03:34:29;18.00;95.80
44775;DHT22;31340;51.402;0.016;2023-07-20T03:36:56;18.00;95.80
44775;DHT22;31340;51.402;0.016;2023-07-20T03:39:24;18.00;95.80
44775;DHT22;31340;51.402;0.016;2023-07-20T03:41:52;18.00;95.90
44775;DHT22;31340;51.402;0.016;2023-07-20T03:44:20;17.90;95.90
44775;DHT22;31340;51.402;0.016;2023-07-20T03:46:47;17.90;95.90
44775;DHT22;31340;51.402;0.016;2023-07-20T03:49:15;17.90;96.00
44775;DHT22;31340;51.402;0.016;2023-07-20T03:51:43;17.90;96.00
44775;DHT22;31340;51.402;0.016;2023-07-20T03:54:11;17.80;96.00
44775;DHT22;31340;51.402;0.016;2023-07-20T03:56:39;17.80;96.10
44775;DHT22;31340;51.402;0.016;2023-07-20T03:59:06;17.80;96.20
44775;DHT22;31340;51.402;0.016;2023-07-20T04:01:34;17.70;96.20
44775;DHT22;31340;51.402;0.016;2023-07-20T04:04:07;17.80;96.30
44775;DHT22;31340;51.402;0.016;2023-07-20T04:06:36;17.70;96.30
44775;DHT22;31340;51.402;0.016;2023-07-20T04:09:04;17.70;96.30
44775;DHT22;31340;51.402;0.016;2023-07-20T04:11:34;17.70;96.30
44775;DHT22;31340;51.402;0.016;2023-07-20T04:14:02;17.70;96.30
44775;DHT22;31340;51.402;0.016;2023-07-20T04:16:30;17.70;96.70
44775;DHT22;31340;51.402;0.016;2023-07-20T04:18:58;17.70;96.30
44775;DHT22;31340;51.402;0.016;2023-07-20T04:21:27;17.70;96.40
44775;DHT22;31340;51.402;0.016;2023-07-20T04:23:55;17.70;96.40
44775;DHT22;31340;51.402;0.016;2023-07-20T04:26:24;17.70;96.40
44775;DHT22;31340;51.402;0.016;2023-07-20T04:28:52;17.70;96.40
44775;DHT22;31340;51.402;0.016;2023-07-20T04:31:33;17.70;96.40
44775;DHT22;31340;51.402;0.016;2023-07-20T04:34:03;17.60;96.40
44775;DHT22;31340;51.402;0.016;2023-07-20T04:36:33;17.60;96.50
44775;DHT22;31340;51.402;0.016;2023-07-20T04:39:00;17.60;96.90
44775;DHT22;31340;51.402;0.016;2023-07-20T04:41:34;17.60;96.60
44775;DHT22;31340;51.402;0.016;2023-07-20T04:44:02;17.50;96.60
44775;DHT22;31340;51.402;0.016;2023-07-20T04:46:31;17.50;96.60
44775;DHT22;31340;51.402;0.016;2023-07-20T04:49:01;17.50;96.70
44775;DHT22;31340;51.402;0.016;2023-07-20T04:51:32;17.40;96.70
44775;DHT22;31340;51.402;0.016;2023-07-20T04:54:00;17.40;96.70
44775;DHT22;31340;51.402;0.016;2023-07-20T04:56:32;17.40;96.70
44775;DHT22;31340;51.402;0.016;2023-07-20T04:59:02;17.40;96.80
44775;DHT22;31340;51.402;0.016;2023-07-20T05:01:30;17.30;96.80
44775;DHT22;31340;51.402;0.016;2023-07-20T05:03:57;17.30;96.90
44775;DHT22;31340;51.402;0.016;2023-07-20T05:06:25;17.30;96.90
44775;DHT22;31340;51.402;0.016;2023-07-20T05:08:53;17.20;96.90
44775;DHT22;31340;51.402;0.016;2023-07-20T05:11:21;17.20;96.90
44775;DHT22;31340;51.402;0.016;2023-07-20T05:13:49;17.20;97.00
44775;DHT22;31340;51.402;0.016;2023-07-20T05:16:17;17.20;97.00
44775;DHT22;31340;51.402;0.016;2023-07-20T05:18:45;17.10;97.00
44775;DHT22;31340;51.402;0.016;2023-07-20T05:21:13;17.10;97.10
44775;DHT22;31340;51.402;0.016;2023-07-20T05:23:41;17.10;97.20
44775;DHT22;31340;51.402;0.016;2023-07-20T05:26:09;17.10;97.30
44775;DHT22;31340;51.402;0.016;2023-07-20T05:28:37;17.00;97.30
44775;DHT22;31340;51.402;0.016;2023-07-20T05:31:05;17.00;97.30
44775;DHT22;31340;51.402;0.016;2023-07-20T05:33:33;17.00;97.40
44775;DHT22;31340;51.402;0.016;2023-07-20T05:36:01;17.00;97.50
44775;DHT22;31340;51.402;0.016;2023-07-20T05:38:28;17.00;97.50
44775;DHT22;31340;51.402;0.016;2023-07-20T05:40:59;17.00;97.60
44775;DHT22;31340;51.402;0.016;2023-07-20T05:43:29;17.10;97.70
44775;DHT22;31340;51.402;0.016;2023-07-20T05:45:56;17.10;97.70
44775;DHT22;31340;51.402;0.016;2023-07-20T05:48:24;17.10;97.70
44775;DHT22;31340;51.402;0.016;2023-07-20T05:50:52;17.10;97.70
44775;DHT22;31340;51.402;0.016;2023-07-20T05:53:19;17.20;97.80
44775;DHT22;31340;51.402;0.016;2023-07-20T05:55:54;17.20;97.80
44775;DHT22;31340;51.402;0.016;2023-07-20T05:58:22;17.20;97.90
44775;DHT22;31340;51.402;0.016;2023-07-20T06:00:50;17.30;97.80
44775;DHT22;31340;51.402;0.016;2023-07-20T06:03:18;17.30;97.60
44775;DHT22;31340;51.402;0.016;2023-07-20T06:05:45;17.40;97.50
44775;DHT22;31340;51.402;0.016;2023-07-20T06:08:13;17.40;97.40
44775;DHT22;31340;51.402;0.016;2023-07-20T06:10:41;17.50;97.40
44775;DHT22;31340;51.402;0.016;2023-07-20T06:13:12;17.50;97.30
44775;DHT22;31340;51.402;0.016;2023-07-20T06:15:40;17.60;97.10
44775;DHT22;31340;51.402;0.016;2023-07-20T06:18:08;17.60;97.00
44775;DHT22;31340;51.402;0.016;2023-07-20T06:20:36;17.60;96.90
44775;DHT22;31340;51.402;0.016;2023-07-20T06:23:04;17.70;96.80
44775;DHT22;31340;51.402;0.016;2023-07-20T06:25:32;17.70;96.70
44775;DHT22;31340;51.402;0.016;2023-07-20T06:27:59;17.80;96.60
44775;DHT22;31340;51.402;0.016;2023-07-20T06:30:27;17.80;96.50
44775;DHT22;31340;51.402;0.016;2023-07-20T06:32:54;17.90;96.40
44775;DHT22;31340;51.402;0.016;2023-07-20T06:35:22;17.90;96.30
44775;DHT22;31340;51.402;0.016;2023-07-20T06:37:50;18.00;96.20
44775;DHT22;31340;51.402;0.016;2023-07-20T06:40:17;18.00;96.10
44775;DHT22;31340;51.402;0.016;2023-07-20T06:42:49;18.00;96.30
44775;DHT22;31340;51.402;0.016;2023-07-20T06:45:19;18.10;95.90
44775;DHT22;31340;51.402;0.016;2023-07-20T06:47:47;18.10;95.90
44775;DHT22;31340;51.402;0.016;2023-07-20T06:50:14;18.20;95.90
44775;DHT22;31340;51.402;0.016;2023-07-20T06:52:44;18.30;96.00
44775;DHT22;31340;51.402;0.016;2023-07-20T06:55:15;18.30;96.00
44775;DHT22;31340;51.402;0.016;2023-07-20T06:57:48;18.40;95.90
44775;DHT22;31340;51.402;0.016;2023-07-20T07:00:16;18.50;95.90
44775;DHT22;31340;51.402;0.016;2023-07-20T07:02:43;18.60;95.90
44775;DHT22;31340;51.402;0.016;2023-07-20T07:05:13;18.70;95.10
44775;DHT22;31340;51.402;0.016;2023-07-20T07:07:47;18.80;94.70
44775;DHT22;31340;51.402;0.016;2023-07-20T07:10:14;18.80;94.50
44775;DHT22;31340;51.402;0.016;2023-07-20T07:12:42;18.90;94.40
44775;DHT22;31340;51.402;0.016;2023-07-20T07:15:10;19.00;94.20
44775;DHT22;31340;51.402;0.016;2023-07-20T07:17:38;19.10;94.00
44775;DHT22;31340;51.402;0.016;2023-07-20T07:20:06;19.30;93.80
44775;DHT22;31340;51.402;0.016;2023-07-20T07:22:37;19.30;93.50
44775;DHT22;31340;51.402;0.016;2023-07-20T07:25:05;19.40;93.20
44775;DHT22;31340;51.402;0.016;2023-07-20T07:27:35;19.50;93.00
44775;DHT22;31340;51.402;0.016;2023-07-20T07:30:03;19.50;92.80
44775;DHT22;31340;51.402;0.016;2023-07-20T07:32:31;19.60;92.60
44775;DHT22;31340;51.402;0.016;2023-07-20T07:34:59;19.60;92.40
44775;DHT22;31340;51.402;0.016;2023-07-20T07:37:28;19.60;92.20
44775;DHT22;31340;51.402;0.016;2023-07-20T07:39:59;19.70;92.20
44775;DHT22;31340;51.402;0.016;2023-07-20T07:42:29;19.70;92.00
44775;DHT22;31340;51.402;0.016;2023-07-20T07:44:56;19.70;91.90
44775;DHT22;31340;51.402;0.016;2023-07-20T07:47:24;19.80;91.90
44775;DHT22;31340;51.402;0.016;2023-07-20T07:49:52;19.80;91.80
44775;DHT22;31340;51.402;0.016;2023-07-20T07:52:19;19.90;91.60
44775;DHT22;31340;51.402;0.016;2023-07-20T07:54:46;19.90;91.40
44775;DHT22;31340;51.402;0.016;2023-07-20T07:57:14;20.00;91.00
44775;DHT22;31340;51.402;0.016;2023-07-20T07:59:42;20.00;90.90
44775;DHT22;31340;51.402;0.016;2023-07-20T08:02:09;20.00;90.90
44775;DHT22;31340;51.402;0.016;2023-07-20T08:04:37;20.10;91.10
44775;DHT22;31340;51.402;0.016;2023-07-20T08:07:06;20.10;90.60
44775;DHT22;31340;51.402;0.016;2023-07-20T08:09:34;20.10;90.50
44775;DHT22;31340;51.402;0.016;2023-07-20T08:12:02;20.20;90.30
44775;DHT22;31340;51.402;0.016;2023-07-20T08:14:31;20.20;90.10
44775;DHT22;31340;51.402;0.016;2023-07-20T08:16:59;20.30;90.20
44775;DHT22;31340;51.402;0.016;2023-07-20T08:19:27;20.30;90.20
44775;DHT22;31340;51.402;0.016;2023-07-20T08:21:55;20.40;90.10
44775;DHT22;31340;51.402;0.016;2023-07-20T08:24:23;20.50;90.10
44775;DHT22;31340;51.402;0.016;2023-07-20T08:26:50;20.50;90.00
44775;DHT22;31340;51.402;0.016;2023-07-20T08:29:18;20.60;89.70
44775;DHT22;31340;51.402;0.016;2023-07-20T08:31:45;20.70;89.00
44775;DHT22;31340;51.402;0.016;2023-07-20T08:34:14;20.70;88.40
44775;DHT22;31340;51.402;0.016;2023-07-20T08:36:58;20.80;88.20
44775;DHT22;31340;51.402;0.016;2023-07-20T08:39:26;20.80;87.80
44775;DHT22;31340;51.402;0.016;2023-07-20T08:41:55;20.90;87.10
44775;DHT22;31340;51.402;0.016;2023-07-20T08:44:25;21.00;86.50
44775;DHT22;31340;51.402;0.016;2023-07-20T08:46:54;21.00;86.40
44775;DHT22;31340;51.402;0.016;2023-07-20T08:49:22;21.00;85.90
44775;DHT22;31340;51.402;0.016;2023-07-20T08:51:51;21.10;87.10
44775;DHT22;31340;51.402;0.016;2023-07-20T08:54:20;21.10;85.60
44775;DHT22;31340;51.402;0.016;2023-07-20T08:56:48;21.20;85.00
44775;DHT22;31340;51.402;0.016;2023-07-20T08:59:17;21.30;84.50
44775;DHT22;31340;51.402;0.016;2023-07-20T09:01:46;21.40;84.30
44775;DHT22;31340;51.402;0.016;2023-07-20T09:04:14;21.40;83.50
44775;DHT22;31340;51.402;0.016;2023-07-20T09:06:43;21.50;82.50
44775;DHT22;31340;51.402;0.016;2023-07-20T09:09:12;21.60;81.20
44775;DHT22;31340;51.402;0.016;2023-07-20T09:11:40;21.60;80.60
44775;DHT22;31340;51.402;0.016;2023-07-20T09:14:09;21.70;79.70
44775;DHT22;31340;51.402;0.016;2023-07-20T09:19:17;21.90;79.10
44775;DHT22;31340;51.402;0.016;2023-07-20T09:21:46;22.00;79.20
44775;DHT22;31340;51.402;0.016;2023-07-20T09:24:17;22.00;78.20
44775;DHT22;31340;51.402;0.016;2023-07-20T09:26:46;22.10;77.60
44775;DHT22;31340;51.402;0.016;2023-07-20T09:29:19;22.20;77.00
44775;DHT22;31340;51.402;0.016;2023-07-20T09:32:00;22.20;77.70
44775;DHT22;31340;51.402;0.016;2023-07-20T09:34:32;22.30;77.90
44775;DHT22;31340;51.402;0.016;2023-07-20T09:37:03;22.40;77.10
44775;DHT22;31340;51.402;0.016;2023-07-20T09:39:32;22.50;76.90
44775;DHT22;31340;51.402;0.016;2023-07-20T09:42:00;22.60;76.50
44775;DHT22;31340;51.402;0.016;2023-07-20T09:44:35;22.70;75.90
44775;DHT22;31340;51.402;0.016;2023-07-20T09:47:06;22.80;75.50
44775;DHT22;31340;51.402;0.016;2023-07-20T09:49:39;22.90;74.90
44775;DHT22;31340;51.402;0.016;2023-07-20T09:52:11;23.00;73.70
44775;DHT22;31340;51.402;0.016;2023-07-20T09:54:39;23.10;73.90
44775;DHT22;31340;51.402;0.016;2023-07-20T09:57:07;23.20;73.20
44775;DHT22;31340;51.402;0.016;2023-07-20T09:59:37;23.30;72.50
44775;DHT22;31340;51.402;0.016;2023-07-20T10:02:11;23.40;72.20
44775;DHT22;31340;51.402;0.016;2023-07-20T10:04:43;23.60;71.90
44775;DHT22;31340;51.402;0.016;2023-07-20T10:07:11;23.70;70.90
44775;DHT22;31340;51.402;0.016;2023-07-20T10:09:40;23.80;70.10
44775;DHT22;31340;51.402;0.016;2023-07-20T10:12:09;23.80;68.50
44775;DHT22;31340;51.402;0.016;2023-07-20T10:14:52;23.90;68.00
44775;DHT22;31340;51.402;0.016;2023-07-20T10:17:24;23.90;66.70
44775;DHT22;31340;51.402;0.016;2023-07-20T10:19:55;24.00;67.70
44775;DHT22;31340;51.402;0.016;2023-07-20T10:22:26;24.10;67.70
44775;DHT22;31340;51.402;0.016;2023-07-20T10:24:54;24.20;68.10
44775;DHT22;31340;51.402;0.016;2023-07-20T10:27:22;24.30;67.70
44775;DHT22;31340;51.402;0.016;2023-07-20T10:29:50;24.50;66.70
44775;DHT22;31340;51.402;0.016;2023-07-20T10:32:19;24.60;65.70
44775;DHT22;31340;51.402;0.016;2023-07-20T10:34:55;24.80;66.70
44775;DHT22;31340;51.402;0.016;2023-07-20T10:37:46;25.00;64.20
44775;DHT22;31340;51.402;0.016;2023-07-20T10:40:38;25.20;61.90
44775;DHT22;31340;51.402;0.016;2023-07-20T10:43:07;25.30;61.00
44775;DHT22;31340;51.402;0.016;2023-07-20T10:48:13;25.50;59.80
44775;DHT22;31340;51.402;0.016;2023-07-20T10:50:43;25.70;60.10
44775;DHT22;31340;51.402;0.016;2023-07-20T10:55:40;26.00;57.80
44775;DHT22;31340;51.402;0.016;2023-07-20T10:58:12;26.20;57.80
44775;DHT22;31340;51.402;0.016;2023-07-20T11:01:01;26.50;57.90
44775;DHT22;31340;51.402;0.016;2023-07-20T11:03:32;26.90;57.10
44775;DHT22;31340;51.402;0.016;2023-07-20T11:11:35;27.80;54.30
44775;DHT22;31340;51.402;0.016;2023-07-20T11:14:06;28.00;53.80
44775;DHT22;31340;51.402;0.016;2023-07-20T11:16:43;28.10;52.30
44775;DHT22;31340;51.402;0.016;2023-07-20T11:21:57;28.10;51.20
44775;DHT22;31340;51.402;0.016;2023-07-20T11:24:31;28.10;51.30
44775;DHT22;31340;51.402;0.016;2023-07-20T11:27:00;28.10;50.40
44775;DHT22;31340;51.402;0.016;2023-07-20T11:29:29;28.20;50.10
44775;DHT22;31340;51.402;0.016;2023-07-20T11:32:02;28.30;49.60
44775;DHT22;31340;51.402;0.016;2023-07-20T11:34:33;28.40;49.40
44775;DHT22;31340;51.402;0.016;2023-07-20T11:37:01;28.60;49.60
44775;DHT22;31340;51.402;0.016;2023-07-20T11:39:33;28.70;49.30
44775;DHT22;31340;51.402;0.016;2023-07-20T11:42:02;29.00;49.40
44775;DHT22;31340;51.402;0.016;2023-07-20T11:44:29;29.30;48.70
44775;DHT22;31340;51.402;0.016;2023-07-20T11:49:37;29.80;47.10
44775;DHT22;31340;51.402;0.016;2023-07-20T11:52:09;30.00;46.50
44775;DHT22;31340;51.402;0.016;2023-07-20T11:54:39;30.20;46.10
44775;DHT22;31340;51.402;0.016;2023-07-20T11:57:07;30.20;45.30
44775;DHT22;31340;51.402;0.016;2023-07-20T11:59:56;30.20;44.70
44775;DHT22;31340;51.402;0.016;2023-07-20T12:02:27;30.30;44.90
44775;DHT22;31340;51.402;0.016;2023-07-20T12:04:56;30.30;43.80
44775;DHT22;31340;51.402;0.016;2023-07-20T12:07:27;30.40;44.40
44775;DHT22;31340;51.402;0.016;2023-07-20T12:10:09;30.50;43.80
44775;DHT22;31340;51.402;0.016;2023-07-20T12:12:41;30.70;44.20
44775;DHT22;31340;51.402;0.016;2023-07-20T12:15:16;30.90;43.70
44775;DHT22;31340;51.402;0.016;2023-07-20T12:17:46;31.00;42.40
44775;DHT22;31340;51.402;0.016;2023-07-20T12:20:25;31.10;41.80
44775;DHT22;31340;51.402;0.016;2023-07-20T12:22:57;31.10;41.20
44775;DHT22;31340;51.402;0.016;2023-07-20T12:25:41;31.10;41.40
44775;DHT22;31340;51.402;0.016;2023-07-20T12:28:17;31.00;40.30
44775;DHT22;31340;51.402;0.016;2023-07-20T12:30:46;30.90;40.60
44775;DHT22;31340;51.402;0.016;2023-07-20T12:33:14;30.80;41.20
44775;DHT22;31340;51.402;0.016;2023-07-20T12:35:44;30.80;41.40
44775;DHT22;31340;51.402;0.016;2023-07-20T12:38:11;30.90;40.90
44775;DHT22;31340;51.402;0.016;2023-07-20T12:40:39;31.00;41.00
44775;DHT22;31340;51.402;0.016;2023-07-20T12:43:08;31.10;40.90
44775;DHT22;31340;51.402;0.016;2023-07-20T12:45:36;31.20;39.70
44775;DHT22;31340;51.402;0.016;2023-07-20T12:48:04;31.30;39.10
44775;DHT22;31340;51.402;0.016;2023-07-20T12:50:32;31.30;39.20
44775;DHT22;31340;51.402;0.016;2023-07-20T12:53:00;31.40;39.90
44775;DHT22;31340;51.402;0.016;2023-07-20T12:55:29;31.50;39.40
44775;DHT22;31340;51.402;0.016;2023-07-20T12:57:57;31.50;38.70
44775;DHT22;31340;51.402;0.016;2023-07-20T13:00:24;31.50;38.50
44775;DHT22;31340;51.402;0.016;2023-07-20T13:02:52;31.50;38.10
44775;DHT22;31340;51.402;0.016;2023-07-20T13:05:35;31.40;37.80
44775;DHT22;31340;51.402;0.016;2023-07-20T13:08:06;31.40;38.30
44775;DHT22;31340;51.402;0.016;2023-07-20T13:10:38;31.50;38.80
44775;DHT22;31340;51.402;0.016;2023-07-20T13:13:08;31.60;38.80
44775;DHT22;31340;51.402;0.016;2023-07-20T13:15:44;31.60;38.10
44775;DHT22;31340;51.402;0.016;2023-07-20T13:18:13;31.60;37.50
44775;DHT22;31340;51.402;0.016;2023-07-20T13:20:40;31.60;37.70
44775;DHT22;31340;51.402;0.016;2023-07-20T13:23:09;31.60;38.00
44775;DHT22;31340;51.402;0.016;2023-07-20T13:25:37;31.50;37.70
44775;DHT22;31340;51.402;0.016;2023-07-20T13:28:05;31.40;37.40
44775;DHT22;31340;51.402;0.016;2023-07-20T13:30:33;31.30;37.60
44775;DHT22;31340;51.402;0.016;2023-07-20T13:33:01;31.20;37.30
44775;DHT22;31340;51.402;0.016;2023-07-20T13:35:33;31.10;37.10
44775;DHT22;31340;51.402;0.016;2023-07-20T13:38:05;30.90;36.60
44775;DHT22;31340;51.402;0.016;2023-07-20T13:40:32;30.70;36.80
44775;DHT22;31340;51.402;0.016;2023-07-20T13:43:00;30.50;37.10
44775;DHT22;31340;51.402;0.016;2023-07-20T13:45:27;30.30;37.40
44775;DHT22;31340;51.402;0.016;2023-07-20T13:47:55;30.10;37.70
44775;DHT22;31340;51.402;0.016;2023-07-20T13:50:23;30.00;38.10
44775;DHT22;31340;51.402;0.016;2023-07-20T13:52:53;29.90;38.60
44775;DHT22;31340;51.402;0.016;2023-07-20T13:55:41;30.00;38.60
44775;DHT22;31340;51.402;0.016;2023-07-20T13:58:12;30.00;38.30
44775;DHT22;31340;51.402;0.016;2023-07-20T14:00:40;30.00;37.90
44775;DHT22;31340;51.402;0.016;2023-07-20T14:03:08;30.20;37.20
44775;DHT22;31340;51.402;0.016;2023-07-20T14:05:39;30.40;37.00
44775;DHT22;31340;51.402;0.016;2023-07-20T14:08:10;30.70;37.10
44775;DHT22;31340;51.402;0.016;2023-07-20T14:10:38;31.00;36.40
44775;DHT22;31340;51.402;0.016;2023-07-20T14:13:08;31.30;36.30
44775;DHT22;31340;51.402;0.016;2023-07-20T14:15:38;31.50;36.00
44775;DHT22;31340;51.402;0.016;2023-07-20T14:18:06;31.60;36.20
44775;DHT22;31340;51.402;0.016;2023-07-20T14:20:34;31.80;36.40
44775;DHT22;31340;51.402;0.016;2023-07-20T14:23:05;31.90;35.50
44775;DHT22;31340;51.402;0.016;2023-07-20T14:25:33;32.00;34.70
44775;DHT22;31340;51.402;0.016;2023-07-20T14:28:04;32.00;34.50
44775;DHT22;31340;51.402;0.016;2023-07-20T14:30:32;32.00;34.90
44775;DHT22;31340;51.402;0.016;2023-07-20T14:32:59;31.90;35.00
44775;DHT22;31340;51.402;0.016;2023-07-20T14:35:27;31.80;35.00
44775;DHT22;31340;51.402;0.016;2023-07-20T14:37:55;31.70;35.10
44775;DHT22;31340;51.402;0.016;2023-07-20T14:40:23;31.60;35.00
44775;DHT22;31340;51.402;0.016;2023-07-20T14:42:50;31.40;34.70
44775;DHT22;31340;51.402;0.016;2023-07-20T14:45:19;31.20;35.00
44775;DHT22;31340;51.402;0.016;2023-07-20T14:47:47;31.10;35.70
44775;DHT22;31340;51.402;0.016;2023-07-20T14:50:22;30.90;36.20
44775;DHT22;31340;51.402;0.016;2023-07-20T14:52:50;30.70;36.50
44775;DHT22;31340;51.402;0.016;2023-07-20T14:55:18;30.60;37.70
44775;DHT22;31340;51.402;0.016;2023-07-20T14:57:46;30.50;37.70
44775;DHT22;31340;51.402;0.016;2023-07-20T15:00:15;30.40;37.50
44775;DHT22;31340;51.402;0.016;2023-07-20T15:02:44;30.30;37.10
44775;DHT22;31340;51.402;0.016;2023-07-20T15:05:11;30.30;37.30
44775;DHT22;31340;51.402;0.016;2023-07-20T15:07:39;30.20;36.80
44775;DHT22;31340;51.402;0.016;2023-07-20T15:10:07;30.30;37.20
44775;DHT22;31340;51.402;0.016;2023-07-20T15:12:34;30.40;37.40
44775;DHT22;31340;51.402;0.016;2023-07-20T15:15:13;30.40;37.00
44775;DHT22;31340;51.402;0.016;2023-07-20T15:17:43;30.50;36.70
44775;DHT22;31340;51.402;0.016;2023-07-20T15:20:12;30.60;37.50
44775;DHT22;31340;51.402;0.016;2023-07-20T15:22:40;30.60;37.50
44775;DHT22;31340;51.402;0.016;2023-07-20T15:25:09;30.70;37.50
44775;DHT22;31340;51.402;0.016;2023-07-20T15:27:40;30.70;36.80
44775;DHT22;31340;51.402;0.016;2023-07-20T15:30:17;30.70;37.10
44775;DHT22;31340;51.402;0.016;2023-07-20T15:32:48;30.60;37.10
44775;DHT22;31340;51.402;0.016;2023-07-20T15:35:19;30.50;37.20
44775;DHT22;31340;51.402;0.016;2023-07-20T15:37:46;30.40;37.70
44775;DHT22;31340;51.402;0.016;2023-07-20T15:40:14;30.20;37.20
44775;DHT22;31340;51.402;0.016;2023-07-20T15:42:41;30.10;37.30
44775;DHT22;31340;51.402;0.016;2023-07-20T15:45:09;29.90;37.40
44775;DHT22;31340;51.402;0.016;2023-07-20T15:47:38;29.70;37.30
44775;DHT22;31340;51.402;0.016;2023-07-20T15:50:06;29.60;38.90
44775;DHT22;31340;51.402;0.016;2023-07-20T15:52:34;29.40;38.80
44775;DHT22;31340;51.402;0.016;2023-07-20T15:55:02;29.20;39.20
44775;DHT22;31340;51.402;0.016;2023-07-20T15:57:32;29.10;39.10
44775;DHT22;31340;51.402;0.016;2023-07-20T16:00:01;29.00;39.10
44775;DHT22;31340;51.402;0.016;2023-07-20T16:02:38;28.90;39.30
44775;DHT22;31340;51.402;0.016;2023-07-20T16:05:07;28.80;38.90
44775;DHT22;31340;51.402;0.016;2023-07-20T16:07:38;28.70;39.20
44775;DHT22;31340;51.402;0.016;2023-07-20T16:10:07;28.70;39.40
44775;DHT22;31340;51.402;0.016;2023-07-20T16:12:37;28.80;39.40
44775;DHT22;31340;51.402;0.016;2023-07-20T16:15:08;28.90;39.20